Messwerte Decatur, Pryor Field

Temperatur

Temperatur
°C
1575860400 21.00 21.00 14
1575864000 22.00 22.00 14
1575867600 23.00 23.00 13
1575871200 0.00 0.00 13
1575874800 1.00 1.00 13
1575878400 2.00 2.00 13
1575882000 3.00 3.00 13
1575885600 4.00 4.00 14
1575889200 5.00 5.00 14
1575892800 6.00 6.00 14
1575896400 7.00 7.00 14
1575900000 8.00 8.00 14
1575903600 9.00 9.00 14
1575907200 10.00 10.00 17
1575910800 11.00 11.00 17
1575914400 12.00 12.00 18
1575918000 13.00 13.00 18
1575921600 14.00 14.00 18
1575925200 15.00 15.00 18
1575928800 16.00 16.00 18
1575932400 17.00 17.00
1575936000 18.00 18.00 18
1575939600 19.00 19.00 18
1575943200 20.00 20.00

Wir danken unserem Partner:

Aktuellste Messwerte

Wettercharakter
Wetter: wechselnd bewölkt
Temperatur
18 °C
Feuchtigkeit
90 %
Wind
15 km/hWindrichtung: Südwest
Luftdruck
1013 hPa
Messzeit: 9. Dezember 2019, 20.00Datenquelle: METAR

Weitere Messstationen in der Nähe

Messstation Temperatur Entfernung
Huntsville 19 °C 16 km
Redstone Army Airfield 19 °C 25 km
Huntsville 18 °C 43 km
Muscle Shoals 21 °C 60 km
Albertville 18.0 °C 79 km
Gadsden 19 °C 111 km
Fort Payne 19.0 °C 114 km

Wind

Windrichtung Böen Mittelwind
° km/h km/h
1575860400 21.00 20.00 - 21.00 140° 30
1575864000 22.00 21.00 - 22.00 140° 20
1575867600 23.00 22.00 - 23.00 140° 20
1575871200 0.00 23.00 - 0.00 160° 20
1575874800 1.00 0.00 - 1.00 140° 20
1575878400 2.00 1.00 - 2.00 140° 15
1575882000 3.00 2.00 - 3.00 140° 20
1575885600 4.00 3.00 - 4.00 150° 20
1575889200 5.00 4.00 - 5.00 150° 20
1575892800 6.00 5.00 - 6.00 160° 25
1575896400 7.00 6.00 - 7.00 170° 25
1575900000 8.00 7.00 - 8.00 170° 20
1575903600 9.00 8.00 - 9.00 160° 25
1575907200 10.00 9.00 - 10.00 190° 30
1575910800 11.00 10.00 - 11.00 190° 45 30
1575914400 12.00 11.00 - 12.00 190° 25
1575918000 13.00 12.00 - 13.00 190° 40 25
1575921600 14.00 13.00 - 14.00 190° 45 30
1575925200 15.00 14.00 - 15.00 190° 40 30
1575928800 16.00 15.00 - 16.00 200° 20
1575932400 17.00 16.00 - 17.00
1575936000 18.00 17.00 - 18.00 190° 20
1575939600 19.00 18.00 - 19.00 190° 20
1575943200 20.00 19.00 - 20.00

Ihre Wetterstation

Fehlt Ihre Wetterstation auf unserem Portal?

Schreiben Sie an network@meteonews.ch

Klima

Wann ist es am wärmsten? Wann regnet es am wenigsten? Unsere Klimadaten geben Auskunft.